ADDS TAF Board (Experimental) INFO

IDs: Format: Expanded Condensed

Updated at: 1840 UTC 23 Nov 2014

KCLE - Cleveland/Hopkins In, OH, US

Issued at 1739 UTC 23 Nov 2014
Time1835Z23/19Z23/20Z23/21Z23/22Z23/23Z24/00Z24/01Z24/02Z24/03Z24/04Z24/05Z24/06Z24/07Z
TypeOBSPRVLPRVLPRVLPRVLPRVL
  [TEMP]  
PRVL
  [TEMP]  
PRVL
  [TEMP]  
PRVLPRVLPRVLPRVLPRVLPRVL
VIS10>6>6>6>6>6
  [5]  
>6
  [5]  
>6
  [5]  
222222
CIG323535252525
  [15]  
25
  [15]  
25
  [15]  
121212121212
CoverOVCOVCOVCOVCOVCOVC
  [BKN]  
OVC
  [BKN]  
OVC
  [BKN]  
OVCOVCOVCOVCOVCOVC
FltCat--VFRVFRMVFRMVFRMVFR
  [MVFR]  
MVFR
  [MVFR]  
MVFR
  [MVFR]  
IFRIFRIFRIFRIFRIFR
WX--VCSHVCSH------
  [-SHRA]  
--
  [-SHRA]  
--
  [-SHRA]  
-SHRA-SHRA-SHRA-SHRA-SHRA-SHRA
WDir170160160150150150
[150]
150
[150]
150
[150]
140140140140140140
WSpd81010141414
  [14]  
14
  [14]  
14
  [14]  
181818181818
WGst------222222
  [22]  
22
  [22]  
22
  [22]  
282828282828
R06/24
XWnd-7-9-9-14-14-14-14-14-18-18-18-18-18-18
XGst-------22-22-22-22-22-28-28-28-28-28-28
HWnd-4-3-3-2-2-2-2-2000000
HGst-------4-4-4-4-4000000
R10/28
XWnd-8-9-9-12-12-12-12-12-13-13-13-13-13-13
XGst-------18-18-18-18-18-20-20-20-20-20-20
HWnd24488888121212121212
HGst------1212121212191919191919
Raw TAF
KCLE 231739Z 2318/2424 16010KT P6SM VCSH SCT025 OVC035
  FM232100 15014G22KT P6SM OVC025
  TEMPO 2323/2402 5SM -SHRA BKN015
  FM240200 14018G28KT 2SM -SHRA SCT008 OVC012
  FM240800 18020G30KT 5SM -SHRA BKN012 OVC025
  FM241600 18023G33KT P6SM OVC030


Raw METAR
KCLE 231835Z 17008KT 10SM BKN032 OVC055 13/05 A2989 RMK AO2 T01280050 $
KCLE 231751Z 17007KT 10SM BKN028 OVC035 12/04 A2993 RMK AO2 SLP136 60000 T01170044 10122 20067 58039 $

TAF Board Legend

Hazard VFR MVFR IFR LIFR
Visibility (sm) >5 3≤X≤5 1≤X<3 <1
Ceiling (100 ft) >30 10≤X≤30 5≤X<10 <5
Wind Speed (kt) <10 10≤X<20 20≤X<30 ≥30
Wind Gust (kt) <15 15≤X<25 25≤X<35 ≥35
Weather No Wx Reported VCTS,-TS,-FZRA TS,FZRA +TS,+FZRA


Page loaded:  18:40 UTC  |   10:40 AM Pacific  |   11:40 AM Mountain  |   12:40 PM Central  |   01:40 PM Eastern

 

ADVISORIES

FORECASTS

FORECASTS

OBSERVATIONS

USER TOOLS

ABOUT US